Latest Weather Observations for Strathalbyn

IDS60901

Issued at 4:01 pm CST Monday 27 May 2019 (issued every 10 minutes, with the page automatically refreshed every 10 minutes)

About weather observations | Map of Adelaide area stations | Latest observations for Adelaide area | Other Formats
Station Details ID: 024580 Name: STRATHALBYN RACECOURSE Lat: -35.28 Lon: 138.89 Height: 58.0 m
Data from the previous 72 hours. | See also: Recent months at Strathalbyn
Date/Time
CST
Temp
°C
App
Temp
°C
Dew
Point
°C
Rel
Hum
%
Delta-T
°C
Wind Press
QNH
hPa
Press
MSL
hPa
Rain since
9am
mm
Dir  Spd
km/h
Gust
km/h
Spd
kts
Gust
kts
27/04:00pm 13.3 8.1 5.7 60 3.6 WSW 22 39 12 21 1019.5 1019.5 0.0
27/03:30pm 13.8 10.1 6.2 60 3.6 WSW 15 20 8 11 1019.3 1019.3 0.0
27/03:00pm 13.0 8.3 6.1 63 3.3 WSW 20 32 11 17 1019.2 1019.2 0.0
27/02:30pm 13.3 8.1 5.5 59 3.7 SW 22 30 12 16 1018.9 1018.9 0.0
27/02:00pm 13.2 7.7 5.9 61 3.5 WSW 24 37 13 20 1018.9 1018.9 0.0
27/01:30pm 13.1 6.8 5.8 61 3.4 SW 28 43 15 23 1019.0 1019.0 0.0
27/01:00pm 14.0 8.4 5.4 56 4.1 SW 24 37 13 20 1018.9 1018.9 0.0
27/12:30pm 14.2 8.5 5.0 54 4.3 SW 24 37 13 20 1019.0 1019.0 0.0
27/12:00pm 13.4 8.2 7.2 66 3.0 W 24 35 13 19 1019.4 1019.4 0.0
27/11:30am 13.1 8.8 7.1 67 2.9 WSW 19 28 10 15 1019.7 1019.7 0.0
27/11:00am 13.2 7.4 6.3 63 3.3 SW 26 37 14 20 1019.7 1019.7 0.0
27/10:30am 12.7 8.1 5.6 62 3.3 WSW 19 28 10 15 1019.7 1019.7 0.0
27/10:00am 12.0 7.4 6.7 70 2.5 W 20 28 11 15 1019.6 1019.6 0.0
27/09:30am 11.2 6.4 5.7 69 2.5 WSW 20 33 11 18 1019.6 1019.6 0.0
27/09:00am 10.8 5.1 4.7 66 2.8 WSW 24 43 13 23 1019.0 1019.0 4.8
27/08:30am 11.4 6.5 5.3 66 2.8 WSW 20 32 11 17 1018.5 1018.5 4.8
27/08:00am 10.3 5.4 5.3 71 2.3 W 20 28 11 15 1018.1 1018.1 4.8
27/07:30am 9.8 4.3 5.8 76 1.8 W 24 30 13 16 1017.8 1017.8 4.8
27/07:00am 9.9 4.7 5.5 74 2.0 WSW 22 32 12 17 1017.5 1017.5 4.8
27/06:30am 9.9 5.3 5.5 74 2.0 WSW 19 26 10 14 1017.1 1017.1 4.6
27/06:00am 10.1 4.2 5.7 74 2.0 WSW 26 39 14 21 1016.8 1016.8 4.6
27/05:30am 10.4 5.1 5.0 69 2.4 WSW 22 33 12 18 1016.2 1016.2 4.4
27/05:00am 10.6 4.8 4.3 65 2.8 WSW 24 33 13 18 1015.8 1015.8 4.4
27/04:30am 11.0 4.8 4.5 64 2.9 WSW 26 41 14 22 1015.6 1015.6 4.4
27/04:00am 10.8 4.3 4.7 66 2.8 W 28 37 15 20 1015.3 1015.3 4.4
27/03:30am 10.8 4.3 4.9 67 2.7 WSW 28 41 15 22 1015.1 1015.1 4.4
27/03:00am 11.1 3.8 4.6 64 2.9 WSW 32 44 17 24 1014.9 1014.9 4.4
27/02:30am 10.7 4.9 4.6 66 2.7 WSW 24 35 13 19 1015.0 1015.0 4.4
27/02:00am 11.1 4.9 4.3 63 3.1 WSW 26 37 14 20 1014.9 1014.9 4.4
27/01:30am 11.3 5.6 5.0 65 2.9 WSW 24 39 13 21 1014.7 1014.7 4.4
27/01:00am 11.7 6.4 6.6 71 2.4 WSW 24 33 13 18 1014.7 1014.7 4.4
27/12:30am 12.0 7.2 7.5 74 2.2 WSW 22 35 12 19 1014.6 1014.6 4.4
27/12:00am 12.2 7.5 7.9 75 2.1 WSW 22 35 12 19 1014.6 1014.6 4.4
 
Date/Time
CST
Temp
°C
App
Temp
°C
Dew
Point
°C
Rel
Hum
%
Delta-T
°C
Wind Press
QNH
hPa
Press
MSL
hPa
Rain since
9am
mm
Dir  Spd
km/h
Gust
km/h
Spd
kts
Gust
kts
26/11:30pm 12.1 7.1 8.2 77 1.9 WSW 24 35 13 19 1014.5 1014.5 4.4
26/11:00pm 11.8 7.9 8.6 81 1.6 WSW 19 28 10 15 1014.5 1014.5 4.4
26/10:30pm 12.3 7.4 8.6 78 1.8 WSW 24 37 13 20 1014.6 1014.6 4.4
26/10:00pm 12.7 8.7 9.0 78 1.9 WSW 20 32 11 17 1014.5 1014.5 4.4
26/09:53pm 12.8 7.2 8.9 77 2.0 WSW 28 46 15 25 1014.3 1014.3 4.4
26/09:30pm 12.6 7.1 9.1 79 1.8 WSW 28 39 15 21 1014.2 1014.2 4.4
26/09:00pm 12.5 5.6 8.8 78 1.9 WSW 35 48 19 26 1013.8 1013.8 4.4
26/08:30pm 12.9 5.8 9.4 79 1.8 W 37 50 20 27 1014.0 1014.0 4.0
26/08:00pm 12.8 7.0 9.6 81 1.6 W 30 48 16 26 1013.9 1013.9 4.0
26/07:59pm 12.7 7.0 9.7 82 1.5 W 30 48 16 26 1013.9 1013.9 4.0
26/07:30pm 13.8 8.0 9.6 76 2.2 W 30 44 16 24 1013.5 1013.5 1.2
26/07:00pm 13.6 7.9 9.8 78 2.0 W 30 44 16 24 1013.7 1013.7 1.2
26/06:30pm 13.3 7.6 9.9 80 1.8 W 30 46 16 25 1013.8 1013.8 1.2
26/06:00pm 12.9 6.2 9.7 81 1.6 W 35 54 19 29 1013.9 1013.9 1.2
26/05:36pm 13.4 7.7 9.8 79 1.9 W 30 50 16 27 1013.7 1013.7 1.0
26/05:30pm 13.1 8.2 9.9 81 1.6 W 26 37 14 20 1013.7 1013.7 1.0
26/05:00pm 14.3 9.0 9.7 74 2.4 WNW 28 41 15 22 1013.8 1013.8 0.2
26/04:30pm 14.2 8.0 9.4 73 2.5 WNW 32 44 17 24 1013.5 1013.5 0.2
26/04:02pm 14.9 9.1 9.3 69 2.9 WNW 30 48 16 26 1013.6 1013.6 0.2
26/04:00pm 14.8 9.0 9.4 70 2.8 WNW 30 43 16 23 1013.7 1013.7 0.2
26/03:30pm 14.7 8.6 9.7 72 2.6 W 32 44 17 24 1013.8 1013.8 0.2
26/03:00pm 14.8 9.5 10.0 73 2.5 WNW 28 52 15 28 1014.1 1014.1 0.2
26/02:53pm 14.2 8.9 10.0 76 2.2 WNW 28 52 15 28 1014.2 1014.2 0.2
26/02:30pm 15.8 10.5 9.9 68 3.1 WNW 28 41 15 22 1014.2 1014.2 0.0
26/02:00pm 15.3 9.6 9.7 69 2.9 WNW 30 52 16 28 1014.4 1014.4 0.0
26/01:54pm 15.3 9.9 9.4 68 3.0 W 28 52 15 28 1014.5 1014.5 0.0
26/01:30pm 15.2 9.5 9.8 70 2.8 WNW 30 39 16 21 1014.6 1014.6 0.0
26/01:00pm 15.8 9.6 9.2 65 3.4 WNW 32 50 17 27 1014.9 1014.9 0.0
26/12:42pm 15.8 9.3 8.8 63 3.6 WNW 33 56 18 30 1015.1 1015.1 0.0
26/12:30pm 16.0 9.8 9.4 65 3.4 WNW 32 46 17 25 1015.2 1015.2 0.0
26/12:00pm 15.7 9.1 8.7 63 3.6 WNW 33 50 18 27 1015.7 1015.7 0.0
26/11:30am 15.8 9.3 8.3 61 3.8 WNW 32 48 17 26 1016.3 1016.3 0.0
26/11:00am 15.5 10.3 8.7 64 3.5 W 26 41 14 22 1016.7 1016.7 0.0
26/10:30am 14.7 9.4 8.4 66 3.2 WNW 26 35 14 19 1017.1 1017.1 0.0
26/10:00am 14.3 9.5 8.9 70 2.7 WNW 24 35 13 19 1017.3 1017.3 0.0
26/09:30am 13.8 8.1 8.2 69 2.8 WNW 28 50 15 27 1017.5 1017.5 0.0
26/09:28am 13.9 8.1 7.9 67 3.0 WNW 28 50 15 27 1017.5 1017.5 0.0
26/09:00am 13.2 6.9 7.4 68 2.8 WNW 30 43 16 23 1017.5 1017.5 1.6
26/08:55am 13.7 7.8 7.5 66 3.0 WNW 28 39 15 21 1017.6 1017.6 1.6
26/08:30am 13.8 11.2 7.6 66 3.1 WNW 11 20 6 11 1017.5 1017.5 1.6
26/08:00am 12.8 8.6 7.3 69 2.7 W 19 30 10 16 1017.6 1017.6 1.6
26/07:30am 9.5 7.0 6.6 82 1.4 NW 9 11 5 6 1017.5 1017.5 1.6
26/07:00am 8.6 5.9 5.4 80 1.4 NNW 9 11 5 6 1017.5 1017.5 1.6
26/06:30am 8.0 5.2 5.1 82 1.3 NNW 9 13 5 7 1017.4 1017.4 1.6
26/06:00am 7.9 5.1 5.0 82 1.3 NNW 9 11 5 6 1017.2 1017.2 1.6
26/05:30am 7.6 3.9 4.6 81 1.3 NNW 13 15 7 8 1017.1 1017.1 1.6
26/05:00am 8.0 4.8 5.1 82 1.3 NW 11 13 6 7 1017.2 1017.2 1.6
26/04:30am 7.8 4.9 4.7 81 1.4 NNW 9 11 5 6 1017.4 1017.4 1.6
26/04:00am 7.7 4.8 4.7 81 1.3 NNW 9 11 5 6 1017.5 1017.5 1.6
26/03:30am 8.5 4.5 4.9 78 1.6 NW 15 17 8 9 1017.5 1017.5 1.6
26/03:00am 8.7 5.4 4.7 76 1.8 NW 11 13 6 7 1017.5 1017.5 1.6
26/02:30am 10.0 6.8 5.2 72 2.2 WNW 11 15 6 8 1017.6 1017.6 1.6
26/02:00am 10.4 6.6 5.6 72 2.2 W 15 17 8 9 1017.8 1017.8 1.6
26/01:30am 10.6 6.4 5.8 72 2.2 W 17 20 9 11 1017.7 1017.7 1.6
26/01:00am 10.6 6.8 5.6 71 2.3 W 15 20 8 11 1017.9 1017.9 1.6
26/12:30am 10.2 7.5 5.8 74 2.0 WNW 9 13 5 7 1018.0 1018.0 1.6
26/12:00am 10.7 7.3 5.9 72 2.2 W 13 19 7 10 1018.0 1018.0 1.6
 
Date/Time
CST
Temp
°C
App
Temp
°C
Dew
Point
°C
Rel
Hum
%
Delta-T
°C
Wind Press
QNH
hPa
Press
MSL
hPa
Rain since
9am
mm
Dir  Spd
km/h
Gust
km/h
Spd
kts
Gust
kts
25/11:30pm 11.1 7.0 6.0 71 2.4 WSW 17 20 9 11 1018.1 1018.1 1.6
25/11:00pm 11.6 7.5 6.3 70 2.5 W 17 22 9 12 1018.0 1018.0 1.6
25/10:30pm 11.7 8.5 7.0 73 2.2 W 13 17 7 9 1018.3 1018.3 1.6
25/10:00pm 12.1 9.0 7.4 73 2.3 W 13 20 7 11 1018.2 1018.2 1.6
25/09:30pm 12.1 8.2 7.2 72 2.4 W 17 20 9 11 1018.3 1018.3 1.6
25/09:00pm 11.7 7.7 6.6 71 2.4 W 17 24 9 13 1018.2 1018.2 1.6
25/08:30pm 11.4 8.2 6.9 74 2.1 WSW 13 19 7 10 1017.7 1017.7 1.6
25/08:00pm 11.6 8.5 7.3 75 2.1 W 13 17 7 9 1017.3 1017.3 1.6
25/07:30pm 12.0 9.0 7.5 74 2.2 W 13 19 7 10 1017.3 1017.3 1.6
25/07:00pm 12.2 9.1 7.3 72 2.4 W 13 17 7 9 1016.8 1016.8 1.6
25/06:30pm 13.0 9.4 8.5 74 2.2 W 17 22 9 12 1016.4 1016.4 1.6
25/06:00pm 13.6 10.5 8.7 72 2.5 W 15 20 8 11 1016.0 1016.0 1.6
25/05:30pm 13.8 10.2 8.4 70 2.7 W 17 22 9 12 1015.4 1015.4 1.6
25/05:00pm 14.2 10.2 8.2 67 3.0 WSW 19 26 10 14 1015.0 1015.0 1.6
25/04:30pm 15.1 10.3 8.8 66 3.2 WSW 24 43 13 23 1014.7 1014.7 1.6
25/04:00pm 15.1 11.1 9.0 67 3.1 W 20 32 11 17 1014.3 1014.3 1.6
25/03:30pm 15.4 11.0 9.1 66 3.2 W 22 33 12 18 1014.1 1014.1 1.6
25/03:00pm 15.9 12.5 10.4 70 2.9 W 19 26 10 14 1014.1 1014.1 1.6
25/02:30pm 15.8 12.0 9.9 68 3.1 W 20 30 11 16 1014.2 1014.2 1.6
25/02:00pm 16.1 12.4 10.0 67 3.2 W 20 32 11 17 1013.9 1013.9 1.6
25/01:30pm 15.0 11.1 10.8 76 2.2 W 22 32 12 17 1014.1 1014.1 1.4
25/01:00pm 16.3 13.3 11.9 75 2.4 W 19 30 10 16 1014.2 1014.2 1.4
25/12:30pm 15.1 12.1 11.9 81 1.7 WSW 19 28 10 15 1014.4 1014.4 1.4
25/12:00pm 15.7 13.0 11.7 77 2.2 W 17 24 9 13 1014.5 1014.5 1.2
25/11:30am 15.0 12.0 11.8 81 1.7 WNW 19 26 10 14 1014.9 1014.9 1.2
25/11:00am 15.1 12.6 12.2 83 1.6 NNW 17 26 9 14 1015.1 1015.1 0.6
25/10:30am 16.1 12.5 11.9 76 2.3 NW 22 30 12 16 1015.2 1015.2 0.2
25/10:00am 15.5 13.0 12.3 81 1.8 NW 17 20 9 11 1015.5 1015.5 0.2
25/09:30am 14.7 12.8 11.8 83 1.6 NNW 13 17 7 9 1015.5 1015.5 0.0
25/09:00am 14.2 13.5 11.9 86 1.2 NNW 7 11 4 6 1015.7 1015.7 2.4
25/08:30am 14.0 11.6 11.3 84 1.4 WNW 15 20 8 11 1015.7 1015.7 2.0
25/08:00am 14.5 11.8 11.8 84 1.5 NW 17 22 9 12 1015.6 1015.6 0.2
25/07:30am 14.3 10.7 11.8 85 1.3 NW 22 33 12 18 1015.1 1015.1 0.2
25/07:00am 14.4 10.3 11.4 82 1.6 NW 24 32 13 17 1014.7 1014.7 0.0
25/06:30am 14.0 11.2 11.3 84 1.4 NW 17 24 9 13 1014.8 1014.8 0.0
25/06:00am 14.2 10.7 11.0 81 1.7 WNW 20 35 11 19 1014.9 1014.9 0.0
25/05:30am 14.2 9.1 10.6 79 1.9 NW 28 37 15 20 1014.6 1014.6 0.0
25/05:00am 14.3 8.8 10.5 78 2.0 NW 30 35 16 19 1014.6 1014.6 0.0
25/04:30am 14.0 9.2 10.4 79 1.9 NW 26 33 14 18 1014.6 1014.6 0.0
25/04:00am 13.9 9.5 10.3 79 1.9 NW 24 33 13 18 1014.8 1014.8 0.0
25/03:30am 14.0 10.3 10.2 78 2.0 NW 20 32 11 17 1015.2 1015.2 0.0
25/03:00am 13.7 10.2 10.3 80 1.8 WNW 19 22 10 12 1015.6 1015.6 0.0
25/02:30am 13.5 10.3 9.9 79 1.9 NW 17 24 9 13 1015.7 1015.7 0.0
25/02:00am 14.0 10.0 10.4 79 1.9 NW 22 30 12 16 1015.9 1015.9 0.0
25/01:30am 14.2 10.2 10.6 79 1.9 NW 22 30 12 16 1015.9 1015.9 0.0
25/01:00am 13.9 10.3 10.5 80 1.8 NW 20 26 11 14 1016.1 1016.1 0.0
25/12:30am 13.9 10.2 10.3 79 1.9 NW 20 28 11 15 1016.3 1016.3 0.0
25/12:00am 13.9 10.2 10.3 79 1.9 WNW 20 28 11 15 1016.5 1016.5 0.0
 
Date/Time
CST
Temp
°C
App
Temp
°C
Dew
Point
°C
Rel
Hum
%
Delta-T
°C
Wind Press
QNH
hPa
Press
MSL
hPa
Rain since
9am
mm
Dir  Spd
km/h
Gust
km/h
Spd
kts
Gust
kts
24/11:30pm 14.0 10.9 10.2 78 2.0 WNW 17 24 9 13 1016.7 1016.7 0.0
24/11:00pm 13.8 11.1 10.4 80 1.8 WNW 15 19 8 10 1016.9 1016.9 0.0
24/10:30pm 11.4 10.8 9.0 85 1.2 NNE 2 7 1 4 1017.0 1017.0 0.0
24/10:00pm 12.5 10.8 10.0 85 1.3 SW 9 9 5 5 1017.1 1017.1 0.0
24/09:30pm 12.5 10.8 10.0 85 1.3 SW 9 9 5 5 1017.3 1017.3 0.0
24/09:00pm 13.0 11.5 10.7 86 1.2 SW 9 13 5 7 1017.6 1017.6 0.0
24/08:30pm 12.8 12.4 9.8 82 1.5 SW 2 6 1 3 1017.5 1017.5 0.0
24/08:00pm 13.3 13.4 10.1 81 1.7 CALM 0 0 0 0 1017.3 1017.3 0.0
24/07:30pm 13.9 14.2 10.9 82 1.6 CALM 0 4 0 2 1017.3 1017.3 0.0
24/07:00pm 14.0 13.0 10.4 79 1.9 SSW 6 9 3 5 1017.0 1017.0 0.0
24/06:30pm 13.9 12.6 10.1 78 2.0 SSW 7 9 4 5 1016.7 1016.7 0.0
24/06:00pm 15.0 13.2 10.8 76 2.2 WNW 11 15 6 8 1016.5 1016.5 0.0
24/05:30pm 15.7 13.9 10.9 73 2.6 WNW 11 15 6 8 1016.4 1016.4 0.0
24/05:00pm 16.7 15.0 11.2 70 3.0 WNW 11 15 6 8 1016.3 1016.3 0.0
24/04:30pm 17.5 15.5 11.5 68 3.3 W 13 19 7 10 1016.1 1016.1 0.0

Latest Capital City Observations: Canberra | Sydney | Melbourne | Brisbane | Adelaide | Perth | Hobart | Darwin

Other formats

Comma delimited format used in spreadsheet applications
http://www.bom.gov.au/fwo/IDS60901/IDS60901.94814.axf

JavaScript Object Notation format (JSON) in row-major order
http://www.bom.gov.au/fwo/IDS60901/IDS60901.94814.json

Data quality

Most of these data are generated automatically and are frequently updated. Quality checks on data are not normally performed. It is possible for incorrect values to appear. Refer to information at About Latest Weather Observations and please check the disclaimer before using these data.